createdAt,value
2022-12-18T19:42:24.943Z,500.00
2022-12-18T19:42:35.061Z,500.00
2022-12-18T19:42:38.977Z,500.00
2022-12-18T19:42:47.969Z,500.00
2022-12-18T19:42:57.973Z,500.00
2022-12-18T19:43:08.849Z,500.00
2022-12-18T19:43:17.949Z,500.00
2022-12-18T19:43:27.937Z,500.00
2022-12-18T19:43:37.930Z,500.00
2022-12-18T19:43:47.907Z,500.00
2022-12-18T19:43:57.884Z,500.00
2022-12-18T19:44:08.717Z,500.00
2022-12-18T19:44:17.892Z,500.00
2022-12-18T19:44:27.855Z,500.00
2022-12-18T19:44:37.840Z,500.00
2022-12-18T19:44:47.914Z,500.00
2022-12-18T19:44:57.828Z,500.00
2022-12-18T19:45:07.794Z,500.00
2022-12-18T19:45:17.787Z,500.00
2022-12-18T19:45:27.843Z,500.00
2022-12-18T19:45:37.817Z,500.00
2022-12-18T19:45:47.791Z,500.00
2022-12-18T19:45:57.767Z,500.00
2022-12-18T19:46:07.871Z,500.00
2022-12-18T19:46:17.821Z,500.00
2022-12-18T19:46:27.732Z,500.00
2022-12-18T19:46:38.307Z,500.00
2022-12-18T19:46:47.693Z,500.00
2022-12-18T19:46:57.700Z,500.00
2022-12-18T19:47:07.719Z,500.00
2022-12-18T19:47:18.169Z,500.00
2022-12-18T19:47:27.799Z,500.00
2022-12-18T19:47:37.815Z,500.00
2022-12-18T19:47:47.804Z,500.00
2022-12-18T19:48:03.944Z,500.00
2022-12-18T19:48:08.763Z,500.00
2022-12-18T19:48:17.773Z,500.00
2022-12-18T19:48:27.743Z,500.00
2022-12-18T19:48:37.834Z,500.00
2022-12-18T19:48:47.705Z,500.00
2022-12-18T19:48:57.718Z,500.00
2022-12-18T19:49:07.669Z,500.00
2022-12-18T19:49:18.304Z,500.00
2022-12-18T19:49:27.613Z,500.00
2022-12-18T19:49:37.622Z,500.00
2022-12-18T19:49:47.641Z,500.00
2022-12-18T19:49:57.658Z,500.00
2022-12-18T19:50:07.630Z,500.00
2022-12-18T19:50:17.588Z,500.00
2022-12-18T19:50:27.548Z,500.00
2022-12-18T19:50:37.483Z,500.00
2022-12-18T19:50:47.471Z,500.00
2022-12-18T19:50:57.529Z,500.00
2022-12-18T19:51:07.429Z,500.00
2022-12-18T19:51:17.420Z,500.00
2022-12-18T19:51:27.413Z,500.00
2022-12-18T19:51:37.369Z,500.00
2022-12-18T19:51:47.380Z,500.00
2022-12-18T19:51:57.340Z,500.00
2022-12-18T19:52:07.305Z,500.00
2022-12-18T19:52:17.284Z,500.00
2022-12-18T19:52:27.301Z,500.00
2022-12-18T19:52:37.283Z,500.00
2022-12-18T19:52:47.243Z,500.00
2022-12-18T19:52:57.213Z,500.00
2022-12-18T19:53:07.185Z,500.00
2022-12-18T19:53:17.186Z,500.00
2022-12-18T19:53:27.169Z,500.00
2022-12-18T19:53:37.110Z,500.00
2022-12-18T19:53:47.116Z,500.00
2022-12-18T19:53:59.302Z,500.00
2022-12-18T19:54:07.115Z,500.00
2022-12-18T19:54:17.852Z,500.00
2022-12-18T19:54:27.090Z,500.00
2022-12-18T19:54:37.081Z,500.00
2022-12-18T19:54:47.067Z,500.00
2022-12-18T19:54:57.041Z,500.00
2022-12-18T19:55:07.010Z,500.00
2022-12-18T19:55:16.999Z,500.00
2022-12-18T19:55:26.940Z,500.00
2022-12-18T19:55:36.966Z,500.00
2022-12-18T19:55:46.909Z,500.00
2022-12-18T19:55:56.887Z,500.00
2022-12-18T19:56:06.931Z,500.00
2022-12-18T19:56:16.968Z,500.00
2022-12-18T19:56:26.906Z,500.00
2022-12-18T19:56:36.865Z,500.00
2022-12-18T19:56:46.852Z,500.00
2022-12-18T19:56:56.838Z,500.00
2022-12-18T19:57:06.834Z,500.00
2022-12-18T19:57:16.808Z,500.00
2022-12-18T19:57:26.822Z,500.00
2022-12-18T19:57:36.729Z,500.00
2022-12-18T19:57:46.750Z,500.00
2022-12-18T19:57:56.703Z,500.00
2022-12-18T19:58:06.679Z,500.00
2022-12-18T19:58:16.682Z,500.00
2022-12-18T19:58:26.644Z,500.00
2022-12-18T19:58:36.636Z,500.00
2022-12-18T19:58:46.684Z,500.00
2022-12-18T19:58:56.618Z,500.00
2022-12-18T19:59:06.576Z,500.00
2022-12-18T19:59:16.534Z,500.00
2022-12-18T19:59:26.643Z,500.00
2022-12-18T19:59:36.504Z,502.00
2022-12-18T19:59:46.546Z,500.00
2022-12-18T19:59:56.488Z,506.00
2022-12-18T20:00:06.470Z,500.00
2022-12-18T20:00:18.816Z,500.00
2022-12-18T20:00:26.434Z,511.00
2022-12-18T20:00:36.380Z,501.00
2022-12-18T20:00:46.419Z,497.00
2022-12-18T20:00:56.413Z,500.00
2022-12-18T20:01:06.381Z,500.00
2022-12-18T20:01:16.824Z,521.00
2022-12-18T20:01:26.432Z,514.00
2022-12-18T20:01:36.634Z,511.00
2022-12-18T20:01:46.582Z,500.00
2022-12-18T20:01:56.713Z,496.00
2022-12-18T20:02:06.727Z,498.00
2022-12-18T20:02:16.749Z,500.00
2022-12-18T20:02:26.648Z,500.00
2022-12-18T20:02:36.685Z,500.00
2022-12-18T20:02:46.521Z,500.00
2022-12-18T20:03:02.984Z,499.00
2022-12-18T20:03:17.669Z,499.00
2022-12-18T20:03:25.422Z,499.00
2022-12-18T20:03:32.270Z,499.00
2022-12-18T20:03:37.515Z,499.00
2022-12-18T20:03:52.344Z,499.00
2022-12-18T20:03:59.020Z,499.00
2022-12-18T20:04:06.407Z,499.00
2022-12-18T20:04:16.685Z,499.00
2022-12-18T20:04:26.543Z,500.00
2022-12-18T20:04:36.469Z,500.00
2022-12-18T20:04:46.442Z,500.00
2022-12-18T20:04:56.458Z,500.00
2022-12-18T20:05:06.438Z,499.00
2022-12-18T20:05:16.403Z,499.00
2022-12-18T20:05:26.383Z,499.00
2022-12-18T20:05:36.343Z,499.00
2022-12-18T20:05:46.354Z,499.00
2022-12-18T20:05:56.281Z,488.00
2022-12-18T20:06:06.323Z,481.00
2022-12-18T20:06:16.264Z,476.00
2022-12-18T20:06:26.241Z,474.00
2022-12-18T20:06:36.210Z,469.00
2022-12-18T20:06:46.179Z,470.00
2022-12-18T20:06:56.161Z,466.00
2022-12-18T20:07:06.173Z,464.00
2022-12-18T20:07:16.154Z,463.00
2022-12-18T20:07:26.143Z,460.00
2022-12-18T20:07:36.168Z,464.00
2022-12-18T20:07:46.195Z,459.00
2022-12-18T20:07:56.163Z,453.00
2022-12-18T20:08:06.126Z,451.00
2022-12-18T20:08:16.103Z,453.00
2022-12-18T20:08:26.067Z,449.00
2022-12-18T20:08:36.080Z,450.00
2022-12-18T20:08:46.046Z,444.00
2022-12-18T20:08:59.577Z,443.00
2022-12-18T20:09:07.009Z,499.00
2022-12-18T20:09:15.968Z,499.00
2022-12-18T20:09:25.958Z,499.00
2022-12-18T20:09:36.201Z,499.00
2022-12-18T20:09:46.169Z,484.00
2022-12-18T20:10:02.641Z,467.00
2022-12-18T20:10:09.090Z,499.00
2022-12-18T20:10:16.093Z,499.00
2022-12-18T20:10:26.107Z,499.00
2022-12-18T20:10:36.052Z,499.00
2022-12-18T20:10:46.066Z,485.00
2022-12-18T20:11:21.964Z,500.00
2022-12-18T20:11:31.894Z,500.00
2022-12-18T20:11:42.613Z,500.00
2022-12-18T20:11:52.125Z,500.00
2022-12-18T20:12:02.146Z,500.00
2022-12-18T20:12:12.163Z,500.00
2022-12-18T20:12:22.143Z,500.00
2022-12-18T20:12:32.229Z,500.00
2022-12-18T20:12:42.178Z,500.00
2022-12-18T20:12:52.179Z,500.00
2022-12-18T20:13:02.182Z,500.00
2022-12-18T20:13:12.347Z,500.00
2022-12-18T20:13:22.314Z,500.00
2022-12-18T20:13:32.356Z,500.00
2022-12-18T20:13:42.786Z,500.00
2022-12-18T20:13:52.323Z,500.00
2022-12-18T20:14:02.350Z,500.00
2022-12-18T20:14:12.342Z,500.00
2022-12-18T20:14:23.352Z,500.00
2022-12-18T20:14:32.333Z,500.00
2022-12-18T20:14:42.506Z,500.00
2022-12-18T20:14:52.497Z,500.00
2022-12-18T20:15:02.494Z,500.00
2022-12-18T20:15:12.468Z,500.00
2022-12-18T20:15:22.493Z,500.00
2022-12-18T20:15:32.506Z,500.00
2022-12-18T20:15:45.317Z,500.00
2022-12-18T20:15:52.487Z,500.00
2022-12-18T20:16:02.462Z,500.00
2022-12-18T20:16:12.516Z,500.00
2022-12-18T20:16:22.488Z,500.00
2022-12-18T20:16:32.532Z,500.00
2022-12-18T20:16:42.507Z,500.00
2022-12-18T20:16:53.052Z,500.00
2022-12-18T20:17:02.502Z,500.00
2022-12-18T20:17:12.575Z,500.00
2022-12-18T20:17:22.597Z,500.00
2022-12-18T20:17:32.535Z,500.00
2022-12-18T20:17:42.572Z,500.00
2022-12-18T20:26:35.925Z,500.00
2022-12-18T20:26:45.839Z,500.00
2022-12-18T20:26:56.039Z,500.00
2022-12-18T20:27:08.695Z,500.00
2022-12-18T20:27:19.453Z,500.00
2022-12-18T20:27:26.000Z,500.00
2022-12-18T20:27:36.065Z,500.00
2022-12-18T20:27:45.984Z,500.00
2022-12-18T20:27:55.984Z,500.00
2022-12-18T20:28:05.979Z,500.00
2022-12-18T20:28:15.958Z,500.00
2022-12-18T20:28:25.942Z,500.00
2022-12-18T20:28:35.923Z,500.00
2022-12-18T20:28:45.924Z,500.00
2022-12-18T20:28:55.898Z,500.00
2022-12-18T20:29:05.902Z,500.00
2022-12-18T20:29:15.931Z,500.00
2022-12-18T20:29:25.877Z,500.00
2022-12-18T20:29:35.847Z,500.00
2022-12-18T20:29:45.838Z,500.00
2022-12-18T20:29:55.868Z,500.00
2022-12-18T20:30:05.833Z,500.00
2022-12-18T20:30:15.784Z,500.00
2022-12-18T20:30:25.805Z,500.00
2022-12-18T20:30:35.788Z,500.00
2022-12-18T20:30:45.787Z,500.00
2022-12-18T20:30:55.748Z,500.00
2022-12-18T20:31:05.687Z,500.00
2022-12-18T20:31:15.713Z,500.00
2022-12-18T20:31:25.736Z,500.00
2022-12-18T20:31:35.747Z,500.00
2022-12-18T20:31:45.699Z,500.00
2022-12-18T20:31:55.731Z,500.00
2022-12-18T20:32:05.700Z,500.00
2022-12-18T20:32:15.692Z,500.00
2022-12-18T20:32:25.817Z,500.00
2022-12-18T20:32:37.357Z,500.00
2022-12-18T20:32:45.815Z,500.00
2022-12-18T20:32:55.783Z,500.00
2022-12-18T20:33:05.743Z,500.00
2022-12-18T20:33:15.749Z,500.00
2022-12-18T20:33:25.724Z,500.00
2022-12-18T20:33:35.724Z,500.00
2022-12-18T20:33:48.398Z,500.00
2022-12-18T20:33:57.644Z,500.00
2022-12-18T20:34:06.164Z,500.00
2022-12-18T20:34:15.654Z,500.00
2022-12-18T20:34:25.830Z,500.00
2022-12-18T20:34:35.808Z,500.00
2022-12-18T20:34:45.815Z,500.00
2022-12-18T20:34:55.773Z,500.00
2022-12-18T20:35:05.785Z,500.00
2022-12-18T20:35:15.819Z,500.00
2022-12-18T20:35:25.794Z,500.00
2022-12-18T20:35:35.738Z,500.00
2022-12-18T20:35:45.820Z,500.00
2022-12-18T20:35:55.823Z,500.00
2022-12-18T20:36:05.781Z,500.00
2022-12-18T20:36:16.345Z,500.00
2022-12-18T20:36:26.934Z,500.00
2022-12-18T20:36:36.314Z,500.00
2022-12-18T20:36:45.774Z,500.00
2022-12-18T20:36:55.742Z,500.00
2022-12-18T20:37:05.816Z,500.00
2022-12-18T20:37:15.812Z,500.00
2022-12-18T20:37:25.835Z,500.00
2022-12-18T20:37:35.783Z,500.00
2022-12-18T20:37:49.377Z,500.00
2022-12-18T20:37:56.022Z,500.00
2022-12-18T20:38:06.002Z,500.00
2022-12-18T20:38:15.993Z,500.00
2022-12-18T20:38:25.979Z,500.00
2022-12-18T20:38:36.008Z,500.00
2022-12-18T20:38:45.976Z,500.00
2022-12-18T20:38:57.332Z,500.00
2022-12-18T20:39:06.471Z,500.00
2022-12-18T20:39:16.023Z,500.00
2022-12-18T20:39:26.025Z,500.00
2022-12-18T20:39:36.058Z,500.00
2022-12-18T20:39:46.003Z,500.00
2022-12-18T20:39:56.080Z,500.00
2022-12-18T20:40:06.011Z,500.00
2022-12-18T20:40:15.993Z,500.00
2022-12-18T20:40:25.988Z,500.00
2022-12-18T20:40:35.983Z,500.00
2022-12-18T20:40:45.959Z,500.00
2022-12-18T20:40:55.977Z,500.00
2022-12-18T20:41:05.995Z,500.00
2022-12-18T20:41:15.928Z,500.00
2022-12-18T20:41:25.953Z,500.00
2022-12-18T20:41:38.098Z,500.00
2022-12-18T20:41:45.939Z,500.00
2022-12-18T20:41:55.993Z,500.00
2022-12-18T20:42:05.937Z,500.00
2022-12-18T20:42:15.933Z,500.00
2022-12-18T20:42:25.914Z,500.00
2022-12-18T20:42:35.897Z,500.00
2022-12-18T20:42:45.960Z,500.00
2022-12-18T20:42:55.905Z,500.00
2022-12-18T20:43:05.928Z,500.00
2022-12-18T20:43:17.483Z,500.00
2022-12-18T20:43:25.922Z,500.00
2022-12-18T20:43:35.908Z,500.00
2022-12-18T20:43:45.893Z,500.00
2022-12-18T20:43:55.873Z,500.00
2022-12-18T20:44:05.898Z,500.00
2022-12-18T20:44:22.428Z,500.00
2022-12-18T20:44:26.913Z,500.00
2022-12-18T20:44:36.464Z,500.00
2022-12-18T20:44:46.041Z,500.00
2022-12-18T20:44:55.889Z,500.00
2022-12-18T20:45:05.877Z,500.00
2022-12-18T20:45:15.884Z,500.00
2022-12-18T20:45:25.859Z,500.00
2022-12-18T20:45:36.109Z,500.00
2022-12-18T20:45:45.951Z,500.00
2022-12-18T20:45:55.899Z,500.00
2022-12-18T20:46:05.937Z,500.00
2022-12-18T20:46:16.052Z,500.00
2022-12-18T20:46:25.896Z,500.00
2022-12-18T20:46:35.866Z,500.00
